Time;durP1;ratioP1;P1;durP2;ratioP2;P2;SDS_P1;SDS_P2;PMS_P1;PMS_P2;Temp;Humidity;BMP_temperature;BMP_pressure;BME280_temperature;BME280_humidity;BME280_pressure;Samples;Min_cycle;Max_cycle;Signal;HPM_P1;HPM_P2
2023/05/16 00:00:48;;;;;;;;;;;;;;;11.71;100.00;-18343.31;5018365;28;19983;-79
2023/05/16 00:03:13;;;;;;;;;;;;;;;11.82;100.00;-18346.19;5019565;28;20485;-78
2023/05/16 00:05:38;;;;;;;;;;;;;;;11.80;100.00;-18345.53;5017789;28;19929;-79
2023/05/16 00:08:04;;;;;;;;;;;;;;;11.80;100.00;-18345.53;5018974;28;19931;-79
2023/05/16 00:10:29;;;;;;;;;;;;;;;11.68;100.00;-18342.34;5019405;28;19932;-78
2023/05/16 00:12:55;;;;;;;;;;;;;;;11.51;100.00;-18337.84;5019403;28;20414;-77
2023/05/16 00:15:22;;;;;;;;;;;;;;;11.45;100.00;-18336.31;5017432;28;20008;-79
2023/05/16 00:17:48;;;;;;;;;;;;;;;11.45;100.00;-18336.31;5019278;28;19933;-77
2023/05/16 00:20:16;;;;;;;;;;;;;;;11.38;100.00;-18334.25;5018531;28;20269;-78
2023/05/16 00:22:41;;;;;;;;;;;;;;;11.46;100.00;-18336.59;5001683;28;20340;-78
2023/05/16 00:25:10;;;;;;;;;;;;;;;11.58;100.00;-18339.63;5004836;28;20065;-78
2023/05/16 00:27:35;;;;;;;;;;;;;;;11.71;100.00;-18343.19;5018344;28;20270;-79
2023/05/16 00:30:01;;;;;;;;;;;;;;;11.59;100.00;-18340.03;5017361;28;19925;-78
2023/05/16 00:32:26;;;;;;;;;;;;;;;11.59;100.00;-18340.03;5019579;28;20376;-78
2023/05/16 00:34:52;;;;;;;;;;;;;;;11.60;100.00;-18340.16;5019590;28;19921;-78
2023/05/16 00:37:17;;;;;;;;;;;;;;;11.58;100.00;-18339.75;5015055;28;20052;-78
2023/05/16 00:39:42;;;;;;;;;;;;;;;11.57;100.00;-18339.47;5016740;28;19971;-78
2023/05/16 00:42:07;;;;;;;;;;;;;;;11.64;100.00;-18341.25;5018345;28;19921;-78
2023/05/16 00:44:32;;;;;;;;;;;;;;;11.59;100.00;-18340.03;5014140;28;19983;-79
2023/05/16 00:46:59;;;;;;;;;;;;;;;11.61;100.00;-18340.56;5017932;28;19924;-78
2023/05/16 00:49:24;;;;;;;;;;;;;;;11.65;100.00;-18341.69;5017399;28;19955;-77
2023/05/16 00:51:50;;;;;;;;;;;;;;;11.68;100.00;-18342.34;5018626;28;20055;-78
2023/05/16 00:54:16;;;;;;;;;;;;;;;11.80;100.00;-18345.53;5019060;28;19944;-78
2023/05/16 00:56:41;;;;;;;;;;;;;;;11.51;100.00;-18337.84;5015333;28;20400;-79
2023/05/16 00:59:06;;;;;;;;;;;;;;;11.54;100.00;-18338.66;5016955;28;20867;-80
2023/05/16 01:01:32;;;;;;;;;;;;;;;11.49;100.00;-18337.28;5018499;28;20418;-77
2023/05/16 01:03:59;;;;;;;;;;;;;;;11.58;100.00;-18339.63;5017625;28;19932;-78
2023/05/16 01:06:25;;;;;;;;;;;;;;;11.66;100.00;-18341.94;5003143;28;19917;-78
2023/05/16 01:08:50;;;;;;;;;;;;;;;11.65;100.00;-18341.53;5018402;28;19916;-78
2023/05/16 01:11:33;;;;;;;;;;;;;;;11.47;100.00;-18336.88;5018209;28;19932;-79
2023/05/16 01:14:17;;;;;;;;;;;;;;;11.46;100.00;-18336.59;4981259;28;20473;-78
2023/05/16 01:16:49;;;;;;;;;;;;;;;11.68;100.00;-18342.50;5022535;28;19920;-78
2023/05/16 01:19:17;;;;;;;;;;;;;;;11.64;100.00;-18341.41;5021064;28;19921;-78
2023/05/16 01:22:10;;;;;;;;;;;;;;;11.51;100.00;-18337.84;5019472;28;19925;-78
2023/05/16 01:24:45;;;;;;;;;;;;;;;11.26;100.00;-18331.09;4989559;28;20366;-79
2023/05/16 01:27:10;;;;;;;;;;;;;;;11.33;100.00;-18332.88;5021599;28;19925;-77
2023/05/16 01:29:36;;;;;;;;;;;;;;;11.29;100.00;-18332.06;5021473;28;19966;-79
2023/05/16 01:32:01;;;;;;;;;;;;;;;11.19;100.00;-18329.31;5020801;28;19956;-79
2023/05/16 01:34:26;;;;;;;;;;;;;;;11.09;100.00;-18326.44;5021812;28;19917;-79
2023/05/16 01:37:06;;;;;;;;;;;;;;;10.89;100.00;-18321.22;5020711;28;20599;-78
2023/05/16 01:39:40;;;;;;;;;;;;;;;10.77;100.00;-18317.91;5020210;28;19924;-78
2023/05/16 01:42:13;;;;;;;;;;;;;;;10.84;100.00;-18319.84;5021550;28;19927;-78
2023/05/16 01:44:47;;;;;;;;;;;;;;;10.82;100.00;-18319.44;5019647;28;19920;-77
2023/05/16 01:47:15;;;;;;;;;;;;;;;10.83;100.00;-18319.69;5020443;28;19964;-78
2023/05/16 01:49:53;;;;;;;;;;;;;;;10.78;100.00;-18318.31;5004851;28;19925;-78
2023/05/16 01:52:24;;;;;;;;;;;;;;;10.65;100.00;-18314.75;5020957;28;19959;-79
2023/05/16 01:54:52;;;;;;;;;;;;;;;10.60;100.00;-18313.53;5021242;28;20007;-79
2023/05/16 01:57:18;;;;;;;;;;;;;;;10.61;100.00;-18313.66;5021874;28;19917;-78
2023/05/16 01:59:44;;;;;;;;;;;;;;;10.62;100.00;-18313.94;5022981;28;19921;-77
2023/05/16 02:02:09;;;;;;;;;;;;;;;10.53;100.00;-18311.59;5022771;28;20307;-78
2023/05/16 02:04:34;;;;;;;;;;;;;;;10.72;100.00;-18316.69;5020376;28;19921;-78
2023/05/16 02:07:00;;;;;;;;;;;;;;;10.67;100.00;-18315.16;5022009;28;19943;-78
2023/05/16 02:09:26;;;;;;;;;;;;;;;10.56;100.00;-18312.28;5021948;28;19925;-77
2023/05/16 02:11:51;;;;;;;;;;;;;;;10.43;100.00;-18308.84;5021155;28;19925;-78
2023/05/16 02:14:16;;;;;;;;;;;;;;;10.38;100.00;-18307.63;5021091;28;20605;-79
2023/05/16 02:16:41;;;;;;;;;;;;;;;10.42;100.00;-18308.56;5019288;28;20394;-78
2023/05/16 02:19:07;;;;;;;;;;;;;;;10.57;100.00;-18312.69;5021465;28;20345;-77
2023/05/16 02:21:33;;;;;;;;;;;;;;;10.55;100.00;-18312.00;5019240;28;20368;-78
2023/05/16 02:23:58;;;;;;;;;;;;;;;10.50;100.00;-18310.63;5020912;28;19980;-79
2023/05/16 02:26:23;;;;;;;;;;;;;;;10.39;100.00;-18307.88;5018823;28;19917;-78
2023/05/16 02:28:48;;;;;;;;;;;;;;;10.53;100.00;-18311.59;5020924;28;19932;-78
2023/05/16 02:31:24;;;;;;;;;;;;;;;10.59;100.00;-18313.25;5019287;28;19925;-78
2023/05/16 02:33:49;;;;;;;;;;;;;;;10.54;100.00;-18311.88;5020076;28;19970;-78
2023/05/16 02:36:15;;;;;;;;;;;;;;;10.51;100.00;-18311.06;5019738;28;19967;-80
2023/05/16 02:38:40;;;;;;;;;;;;;;;10.36;100.00;-18307.06;5019434;28;19990;-78
2023/05/16 02:41:05;;;;;;;;;;;;;;;10.35;100.00;-18306.66;5022231;28;19916;-79
2023/05/16 02:43:30;;;;;;;;;;;;;;;10.24;100.00;-18303.63;5019391;28;20381;-78
2023/05/16 02:45:56;;;;;;;;;;;;;;;10.15;100.00;-18301.41;5019706;28;20402;-78
2023/05/16 02:48:21;;;;;;;;;;;;;;;10.19;100.00;-18302.25;5020215;28;20463;-79
2023/05/16 02:50:46;;;;;;;;;;;;;;;10.20;100.00;-18302.53;5019831;28;19917;-78
2023/05/16 02:53:12;;;;;;;;;;;;;;;10.28;100.00;-18304.88;5020253;28;19921;-79
2023/05/16 02:55:37;;;;;;;;;;;;;;;10.19;100.00;-18302.25;5018980;28;19917;-79
2023/05/16 02:58:02;;;;;;;;;;;;;;;10.11;100.00;-18300.31;5019969;28;19917;-79
2023/05/16 03:00:28;;;;;;;;;;;;;;;10.07;100.00;-18299.09;5018437;28;20800;-78
2023/05/16 03:02:53;;;;;;;;;;;;;;;10.17;100.00;-18301.84;5020204;28;19967;-78
2023/05/16 03:05:18;;;;;;;;;;;;;;;10.14;100.00;-18301.00;5019121;28;20399;-78
2023/05/16 03:07:44;;;;;;;;;;;;;;;10.00;100.00;-18297.16;5020699;28;20331;-78
2023/05/16 03:10:10;;;;;;;;;;;;;;;9.92;100.00;-18295.09;5019476;28;20411;-78
2023/05/16 03:12:35;;;;;;;;;;;;;;;10.00;100.00;-18297.16;5018553;28;20026;-78
2023/05/16 03:15:00;;;;;;;;;;;;;;;9.80;100.00;-18291.94;5020758;28;20564;-78
2023/05/16 03:17:25;;;;;;;;;;;;;;;9.67;100.00;-18288.50;5019315;28;19929;-78
2023/05/16 03:19:51;;;;;;;;;;;;;;;9.64;100.00;-18287.53;5020141;28;19971;-77
2023/05/16 03:22:16;;;;;;;;;;;;;;;9.51;100.00;-18284.09;5018974;28;20346;-78
2023/05/16 03:24:41;;;;;;;;;;;;;;;9.53;100.00;-18284.66;5018823;28;20442;-78
2023/05/16 03:27:06;;;;;;;;;;;;;;;9.51;100.00;-18284.09;5020579;28;20370;-78
2023/05/16 03:29:32;;;;;;;;;;;;;;;9.41;100.00;-18281.34;5018569;28;19939;-78
2023/05/16 03:31:57;;;;;;;;;;;;;;;9.41;100.00;-18281.34;5019698;28;20388;-78
2023/05/16 03:34:23;;;;;;;;;;;;;;;9.33;100.00;-18279.16;5018367;28;19917;-78
2023/05/16 03:36:49;;;;;;;;;;;;;;;9.24;100.00;-18276.81;5019006;28;20380;-78
2023/05/16 03:39:15;;;;;;;;;;;;;;;9.37;100.00;-18280.38;5018652;28;20379;-78
2023/05/16 03:41:40;;;;;;;;;;;;;;;9.35;100.00;-18279.84;5017606;28;19921;-78
2023/05/16 03:44:05;;;;;;;;;;;;;;;9.34;100.00;-18279.56;5020148;28;19924;-78
2023/05/16 03:46:31;;;;;;;;;;;;;;;9.43;100.00;-18282.03;5020469;28;20007;-79
2023/05/16 03:48:56;;;;;;;;;;;;;;;9.42;100.00;-18281.63;5019840;28;19963;-78
2023/05/16 03:51:21;;;;;;;;;;;;;;;9.43;100.00;-18281.91;5002441;28;19925;-78
2023/05/16 03:53:46;;;;;;;;;;;;;;;9.25;100.00;-18277.22;5018099;28;19917;-78
2023/05/16 03:56:12;;;;;;;;;;;;;;;9.17;100.00;-18275.03;5001931;28;19923;-77
2023/05/16 03:58:37;;;;;;;;;;;;;;;9.26;100.00;-18277.34;5014008;28;19928;-78
2023/05/16 04:01:02;;;;;;;;;;;;;;;9.32;100.00;-18278.88;5021140;28;19920;-78
2023/05/16 04:03:29;;;;;;;;;;;;;;;9.28;100.00;-18277.91;5019706;28;19932;-78
2023/05/16 04:05:55;;;;;;;;;;;;;;;9.13;100.00;-18273.78;5021558;28;20296;-78
2023/05/16 04:08:20;;;;;;;;;;;;;;;9.19;100.00;-18275.56;5019363;28;19925;-80
2023/05/16 04:10:45;;;;;;;;;;;;;;;9.15;100.00;-18274.34;5018395;28;19979;-78
2023/05/16 04:13:10;;;;;;;;;;;;;;;9.08;100.00;-18272.53;5018716;28;19924;-77
2023/05/16 04:15:36;;;;;;;;;;;;;;;9.30;100.00;-18278.31;5006149;28;19986;-78
2023/05/16 04:18:01;;;;;;;;;;;;;;;9.38;100.00;-18280.66;5018690;28;20004;-78
2023/05/16 04:20:26;;;;;;;;;;;;;;;9.32;100.00;-18278.88;5015569;28;20008;-78
2023/05/16 04:22:52;;;;;;;;;;;;;;;9.45;100.00;-18282.59;5017637;28;19917;-78
2023/05/16 04:25:17;;;;;;;;;;;;;;;9.57;100.00;-18285.63;5018953;28;19944;-79
2023/05/16 04:27:42;;;;;;;;;;;;;;;9.43;100.00;-18281.91;5023265;28;19975;-79
2023/05/16 04:30:10;;;;;;;;;;;;;;;9.23;100.00;-18276.66;5020231;28;20285;-79
2023/05/16 04:32:35;;;;;;;;;;;;;;;9.02;100.00;-18270.91;5000959;28;19971;-79
2023/05/16 04:35:01;;;;;;;;;;;;;;;9.02;100.00;-18271.03;5019817;28;19921;-80
2023/05/16 04:37:26;;;;;;;;;;;;;;;9.09;100.00;-18272.81;5020260;28;19964;-81
2023/05/16 04:39:53;;;;;;;;;;;;;;;9.16;100.00;-18274.75;5019958;28;20036;-81
2023/05/16 04:42:18;;;;;;;;;;;;;;;9.11;100.00;-18273.38;5021559;22;19922;-84
2023/05/16 04:44:43;;;;;;;;;;;;;;;9.25;100.00;-18277.22;4985883;28;19936;-84
2023/05/16 04:47:08;;;;;;;;;;;;;;;9.24;100.00;-18276.94;5006260;28;19917;-84
2023/05/16 04:49:34;;;;;;;;;;;;;;;9.38;100.00;-18280.66;5006221;28;20458;-84
2023/05/16 04:51:59;;;;;;;;;;;;;;;9.55;100.00;-18285.19;5006888;28;20216;-84
2023/05/16 04:54:25;;;;;;;;;;;;;;;9.50;100.00;-18283.81;4984593;28;19922;-85
2023/05/16 04:56:50;;;;;;;;;;;;;;;9.64;100.00;-18287.69;4984165;28;20007;-85
2023/05/16 04:59:15;;;;;;;;;;;;;;;9.50;100.00;-18283.81;4969851;28;20017;-85
2023/05/16 05:01:41;;;;;;;;;;;;;;;9.66;100.00;-18288.22;4986674;28;20129;-84
2023/05/16 05:04:06;;;;;;;;;;;;;;;9.75;100.00;-18290.44;4996169;28;20669;-84
2023/05/16 05:06:31;;;;;;;;;;;;;;;9.83;100.00;-18292.63;4974495;28;20474;-85
2023/05/16 05:08:56;;;;;;;;;;;;;;;9.82;100.00;-18292.50;4974079;28;19918;-85
2023/05/16 05:11:22;;;;;;;;;;;;;;;9.87;100.00;-18293.88;4993232;28;20306;-84
2023/05/16 05:13:47;;;;;;;;;;;;;;;9.86;100.00;-18293.44;4973135;28;19925;-85
2023/05/16 05:16:12;;;;;;;;;;;;;;;10.04;100.00;-18298.41;4992907;28;19940;-85
2023/05/16 05:18:37;;;;;;;;;;;;;;;10.10;100.00;-18300.06;4990398;28;20532;-85
2023/05/16 05:21:03;;;;;;;;;;;;;;;10.12;100.00;-18300.47;4989303;28;19925;-85
2023/05/16 05:23:29;;;;;;;;;;;;;;;10.09;100.00;-18299.78;4975502;28;19929;-85
2023/05/16 05:25:54;;;;;;;;;;;;;;;10.24;100.00;-18303.63;4992404;28;19925;-84
2023/05/16 05:28:19;;;;;;;;;;;;;;;10.39;100.00;-18307.75;5011122;28;19925;-84
2023/05/16 05:30:47;;;;;;;;;;;;;;;10.44;100.00;-18309.13;5008245;28;20064;-84
2023/05/16 05:33:13;;;;;;;;;;;;;;;10.49;100.00;-18310.38;4996690;28;19971;-84
2023/05/16 05:35:38;;;;;;;;;;;;;;;10.65;100.00;-18314.75;5005252;28;19917;-85
2023/05/16 05:38:03;;;;;;;;;;;;;;;10.60;100.00;-18313.53;5007811;28;19971;-85
2023/05/16 05:40:29;;;;;;;;;;;;;;;10.62;100.00;-18313.94;5006632;28;20063;-84
2023/05/16 05:42:54;;;;;;;;;;;;;;;10.73;100.00;-18316.81;5005839;28;20396;-84
2023/05/16 05:45:19;;;;;;;;;;;;;;;10.76;100.00;-18317.63;5007456;28;19967;-84
2023/05/16 05:47:45;;;;;;;;;;;;;;;10.69;100.00;-18315.84;5007594;28;19921;-85
2023/05/16 05:50:10;;;;;;;;;;;;;;;10.63;100.00;-18314.06;5007541;28;20003;-85
2023/05/16 05:52:36;;;;;;;;;;;;;;;10.67;100.00;-18315.16;5005736;28;20303;-85
2023/05/16 05:55:01;;;;;;;;;;;;;;;10.80;100.00;-18318.88;4991393;28;19925;-85
2023/05/16 05:57:26;;;;;;;;;;;;;;;11.01;100.00;-18324.50;5005681;28;20427;-85
2023/05/16 05:59:52;;;;;;;;;;;;;;;11.13;100.00;-18327.53;5005966;28;20471;-83
2023/05/16 06:02:17;;;;;;;;;;;;;;;11.22;100.00;-18330.00;4990195;28;20388;-85
2023/05/16 06:04:44;;;;;;;;;;;;;;;11.39;100.00;-18334.66;5006702;28;19944;-85
2023/05/16 06:07:09;;;;;;;;;;;;;;;11.30;100.00;-18332.19;5007329;28;19931;-85
2023/05/16 06:09:37;;;;;;;;;;;;;;;11.44;100.00;-18336.03;5003952;28;19925;-84
2023/05/16 06:12:03;;;;;;;;;;;;;;;11.27;100.00;-18331.38;5004872;28;19956;-86
2023/05/16 06:14:28;;;;;;;;;;;;;;;11.33;100.00;-18333.03;5004327;28;19957;-85
2023/05/16 06:16:53;;;;;;;;;;;;;;;11.13;100.00;-18327.53;5005649;28;19945;-85
2023/05/16 06:19:18;;;;;;;;;;;;;;;11.40;100.00;-18334.94;5010226;28;19921;-85
2023/05/16 06:21:44;;;;;;;;;;;;;;;11.46;100.00;-18336.47;5010138;28;19914;-85
2023/05/16 06:24:15;;;;;;;;;;;;;;;11.59;100.00;-18339.88;4991963;28;20020;-85
2023/05/16 06:26:40;;;;;;;;;;;;;;;11.72;100.00;-18343.47;5009328;28;19920;-85
2023/05/16 06:29:05;;;;;;;;;;;;;;;11.81;100.00;-18345.78;5009492;28;19921;-85
2023/05/16 06:31:31;;;;;;;;;;;;;;;11.63;100.00;-18341.00;5010936;28;19917;-85
2023/05/16 06:33:56;;;;;;;;;;;;;;;11.81;100.00;-18345.94;5013202;28;20007;-84
2023/05/16 06:36:21;;;;;;;;;;;;;;;11.95;100.00;-18349.63;5031146;28;19905;-86
2023/05/16 06:38:46;;;;;;;;;;;;;;;11.82;100.00;-18346.19;5037034;28;19924;-85
2023/05/16 06:41:11;;;;;;;;;;;;;;;11.77;100.00;-18344.84;5034978;28;19957;-86
2023/05/16 06:43:37;;;;;;;;;;;;;;;11.93;100.00;-18349.22;5034598;28;19956;-85
2023/05/16 06:46:02;;;;;;;;;;;;;;;11.88;100.00;-18347.72;5033679;28;19993;-85
2023/05/16 06:48:28;;;;;;;;;;;;;;;11.95;100.00;-18349.78;5012646;28;19917;-85
2023/05/16 06:50:53;;;;;;;;;;;;;;;12.00;100.00;-18351.00;5010688;28;20001;-85
2023/05/16 06:53:21;;;;;;;;;;;;;;;11.72;100.00;-18343.47;5008220;28;19917;-85
2023/05/16 06:55:46;;;;;;;;;;;;;;;11.73;100.00;-18343.88;5007850;28;19925;-86
2023/05/16 06:58:12;;;;;;;;;;;;;;;11.84;100.00;-18346.63;5009366;28;20289;-85
2023/05/16 07:00:37;;;;;;;;;;;;;;;11.80;100.00;-18345.66;5008648;28;19962;-86
2023/05/16 07:03:03;;;;;;;;;;;;;;;11.83;100.00;-18346.47;4993584;28;19918;-85
2023/05/16 07:05:31;;;;;;;;;;;;;;;11.93;100.00;-18349.09;5003517;28;19923;-85
2023/05/16 07:07:56;;;;;;;;;;;;;;;11.91;100.00;-18348.69;5012471;28;19925;-86
2023/05/16 07:10:21;;;;;;;;;;;;;;;12.16;100.00;-18355.41;5012604;28;19921;-85
2023/05/16 07:12:47;;;;;;;;;;;;;;;12.31;100.00;-18359.38;4993225;28;20311;-85
2023/05/16 07:15:12;;;;;;;;;;;;;;;12.09;100.00;-18353.34;5013224;28;19928;-85
2023/05/16 07:17:37;;;;;;;;;;;;;;;12.01;100.00;-18351.28;5014154;28;19921;-84
2023/05/16 07:20:03;;;;;;;;;;;;;;;11.91;100.00;-18348.69;5014244;28;20245;-84
2023/05/16 07:22:29;;;;;;;;;;;;;;;11.81;100.00;-18345.78;5015888;28;19920;-85
2023/05/16 07:24:56;;;;;;;;;;;;;;;11.88;100.00;-18347.84;5012781;28;19928;-85
2023/05/16 07:27:21;;;;;;;;;;;;;;;12.08;100.00;-18353.06;5013767;28;19988;-85
2023/05/16 07:29:47;;;;;;;;;;;;;;;12.21;100.00;-18356.63;5011444;28;20410;-85
2023/05/16 07:32:12;;;;;;;;;;;;;;;12.36;100.00;-18360.75;5013782;28;20418;-85
2023/05/16 07:34:37;;;;;;;;;;;;;;;12.40;100.00;-18361.72;5013686;28;19921;-85
2023/05/16 07:37:21;;;;;;;;;;;;;;;12.46;100.00;-18363.34;5011073;28;19955;-85
2023/05/16 07:39:47;;;;;;;;;;;;;;;12.56;100.00;-18365.97;5009689;28;19940;-84
2023/05/16 07:42:12;;;;;;;;;;;;;;;12.62;100.00;-18367.59;4998455;28;19925;-85
2023/05/16 07:44:37;;;;;;;;;;;;;;;12.72;100.00;-18370.34;5010178;28;20292;-86
2023/05/16 07:47:02;;;;;;;;;;;;;;;13.00;100.00;-18377.75;5015639;28;19917;-85
2023/05/16 07:49:28;;;;;;;;;;;;;;;13.14;100.00;-18381.59;4999167;28;19921;-84
2023/05/16 07:51:53;;;;;;;;;;;;;;;13.17;100.00;-18382.28;4997542;28;19927;-84
2023/05/16 07:54:18;;;;;;;;;;;;;;;13.32;100.00;-18386.53;5016782;28;20003;-83
2023/05/16 07:56:43;;;;;;;;;;;;;;;13.51;100.00;-18391.47;5017619;28;19913;-84
2023/05/16 07:59:09;;;;;;;;;;;;;;;13.61;100.00;-18394.06;5017587;28;19913;-85
2023/05/16 08:01:34;;;;;;;;;;;;;;;13.46;100.00;-18390.22;5015703;28;19921;-84
2023/05/16 08:03:59;;;;;;;;;;;;;;;13.16;100.00;-18382.13;5009380;28;20366;-84
2023/05/16 08:06:25;;;;;;;;;;;;;;;13.14;100.00;-18381.59;5015586;28;19925;-85
2023/05/16 08:08:50;;;;;;;;;;;;;;;13.15;100.00;-18381.88;5010913;28;19921;-84
2023/05/16 08:11:15;;;;;;;;;;;;;;;13.37;100.00;-18387.63;5002089;28;19970;-84
2023/05/16 08:13:41;;;;;;;;;;;;;;;13.43;100.00;-18389.28;5011003;28;19914;-84
2023/05/16 08:16:06;;;;;;;;;;;;;;;13.70;100.00;-18396.66;5009360;28;19928;-85
2023/05/16 08:18:31;;;;;;;;;;;;;;;14.02;100.00;-18405.16;5008072;28;19917;-85
2023/05/16 08:20:56;;;;;;;;;;;;;;;14.00;97.12;-18404.75;5012429;28;19960;-84
2023/05/16 08:23:22;;;;;;;;;;;;;;;13.92;89.93;-18402.56;5011837;28;19935;-85
2023/05/16 08:25:47;;;;;;;;;;;;;;;14.05;88.39;-18406.00;4993883;28;19920;-85
2023/05/16 08:28:12;;;;;;;;;;;;;;;14.19;89.14;-18409.81;4996934;28;19921;-84
2023/05/16 08:30:37;;;;;;;;;;;;;;;13.99;83.46;-18404.34;5012323;28;20400;-84
2023/05/16 08:33:04;;;;;;;;;;;;;;;13.81;86.63;-18399.56;4997664;28;20332;-84
2023/05/16 08:35:30;;;;;;;;;;;;;;;13.74;86.82;-18397.75;5011214;28;19918;-84
2023/05/16 08:37:55;;;;;;;;;;;;;;;13.59;91.57;-18393.66;5010655;28;19917;-85
2023/05/16 08:40:21;;;;;;;;;;;;;;;13.76;95.24;-18398.31;4995095;28;20338;-85
2023/05/16 08:42:46;;;;;;;;;;;;;;;13.76;100.00;-18398.31;4999945;28;19914;-85
2023/05/16 08:45:13;;;;;;;;;;;;;;;13.85;100.00;-18400.50;5008660;28;19964;-85
2023/05/16 08:47:40;;;;;;;;;;;;;;;13.83;99.52;-18400.09;4993315;28;19930;-85
2023/05/16 08:50:08;;;;;;;;;;;;;;;13.88;100.00;-18401.47;5009074;28;19917;-85
2023/05/16 08:52:36;;;;;;;;;;;;;;;13.71;100.00;-18396.81;4990601;28;19913;-84
2023/05/16 08:55:06;;;;;;;;;;;;;;;13.65;100.00;-18395.31;4992758;28;20387;-85
2023/05/16 08:57:35;;;;;;;;;;;;;;;13.52;99.63;-18391.75;5008207;28;19913;-84
2023/05/16 09:00:09;;;;;;;;;;;;;;;13.58;97.70;-18393.25;5000316;28;19920;-84
2023/05/16 09:02:34;;;;;;;;;;;;;;;13.58;97.81;-18393.38;5009946;28;19952;-85
2023/05/16 09:05:00;;;;;;;;;;;;;;;13.39;99.26;-18388.19;4998748;28;19920;-84
2023/05/16 09:07:25;;;;;;;;;;;;;;;13.42;100.00;-18389.13;5011938;28;20004;-85
2023/05/16 09:09:53;;;;;;;;;;;;;;;13.66;100.00;-18395.44;5010221;28;19948;-84
2023/05/16 09:12:19;;;;;;;;;;;;;;;13.71;97.05;-18396.94;5010161;28;19913;-85
2023/05/16 09:14:46;;;;;;;;;;;;;;;13.99;100.00;-18404.34;4992488;28;19925;-85
2023/05/16 09:17:14;;;;;;;;;;;;;;;14.11;97.37;-18407.50;4990422;28;19961;-85
2023/05/16 09:19:43;;;;;;;;;;;;;;;13.97;98.48;-18403.94;5003992;28;20000;-85
2023/05/16 09:22:10;;;;;;;;;;;;;;;14.14;100.00;-18408.31;5004377;28;19988;-85
2023/05/16 09:24:39;;;;;;;;;;;;;;;14.36;100.00;-18414.19;5002206;28;19968;-85
2023/05/16 09:27:11;;;;;;;;;;;;;;;14.65;95.46;-18422.00;4997722;28;19925;-85
2023/05/16 09:29:36;;;;;;;;;;;;;;;14.39;96.92;-18415.03;5002246;28;19931;-85
2023/05/16 09:32:09;;;;;;;;;;;;;;;14.32;91.18;-18413.25;4999229;28;19917;-85
2023/05/16 09:34:36;;;;;;;;;;;;;;;14.41;96.73;-18415.56;5002752;28;19928;-85
2023/05/16 09:37:02;;;;;;;;;;;;;;;14.66;95.55;-18422.41;5005018;28;19926;-84
2023/05/16 09:39:27;;;;;;;;;;;;;;;14.56;92.20;-18419.69;5005703;28;19931;-85
2023/05/16 09:41:53;;;;;;;;;;;;;;;14.37;90.24;-18414.63;5007019;28;19936;-85
2023/05/16 09:44:18;;;;;;;;;;;;;;;14.47;95.75;-18417.22;5004915;28;20400;-85
2023/05/16 09:46:43;;;;;;;;;;;;;;;14.54;90.46;-18419.13;5004706;28;20403;-84
2023/05/16 09:49:12;;;;;;;;;;;;;;;14.79;92.39;-18425.84;5004584;28;19921;-84
2023/05/16 09:51:39;;;;;;;;;;;;;;;14.94;80.95;-18429.81;4987349;28;19917;-85
2023/05/16 09:54:06;;;;;;;;;;;;;;;15.23;82.61;-18437.47;5003698;28;19972;-85
2023/05/16 09:56:32;;;;;;;;;;;;;;;15.49;76.17;-18444.59;5004300;28;19917;-84
2023/05/16 09:58:57;;;;;;;;;;;;;;;15.32;72.21;-18440.06;5003398;28;19932;-84
2023/05/16 10:01:23;;;;;;;;;;;;;;;15.14;77.55;-18435.00;4993641;28;19929;-85
2023/05/16 10:03:49;;;;;;;;;;;;;;;15.09;80.52;-18433.91;5003540;28;19917;-85
2023/05/16 10:06:15;;;;;;;;;;;;;;;14.94;87.79;-18429.81;5003709;28;19917;-84
2023/05/16 10:08:42;;;;;;;;;;;;;;;14.73;87.57;-18424.06;4986280;28;20008;-85
2023/05/16 10:11:07;;;;;;;;;;;;;;;14.43;90.40;-18416.13;4993107;28;20351;-84
2023/05/16 10:13:34;;;;;;;;;;;;;;;14.44;90.51;-18416.38;4999429;28;19946;-84
2023/05/16 10:16:01;;;;;;;;;;;;;;;14.54;90.20;-18419.13;4988655;28;19933;-84
2023/05/16 10:18:29;;;;;;;;;;;;;;;14.41;87.76;-18415.56;4985693;28;19917;-85
2023/05/16 10:20:56;;;;;;;;;;;;;;;14.60;83.65;-18420.78;5002421;28;19926;-85
2023/05/16 10:23:24;;;;;;;;;;;;;;;14.71;86.79;-18423.66;5003340;28;19925;-85
2023/05/16 10:25:50;;;;;;;;;;;;;;;15.18;99.45;-18436.25;5002399;28;19924;-85
2023/05/16 10:28:15;;;;;;;;;;;;;;;15.42;75.29;-18442.66;5009471;28;19921;-85
2023/05/16 10:30:43;;;;;;;;;;;;;;;15.51;64.50;-18445.13;5005014;28;19917;-85
2023/05/16 10:33:09;;;;;;;;;;;;;;;15.72;63.71;-18450.59;5008646;28;20494;-85
2023/05/16 10:35:34;;;;;;;;;;;;;;;15.67;63.51;-18449.22;5005498;28;20627;-85
2023/05/16 10:38:00;;;;;;;;;;;;;;;15.57;68.67;-18446.78;5004870;28;19917;-85
2023/05/16 10:40:26;;;;;;;;;;;;;;;15.35;73.53;-18440.88;5001745;28;20403;-84
2023/05/16 10:42:59;;;;;;;;;;;;;;;15.52;80.82;-18445.41;5004214;28;19960;-85
2023/05/16 10:45:24;;;;;;;;;;;;;;;15.64;70.62;-18448.56;5005884;28;19929;-84
2023/05/16 10:47:59;;;;;;;;;;;;;;;15.54;73.13;-18445.81;5004412;28;19978;-85
2023/05/16 10:50:32;;;;;;;;;;;;;;;15.44;72.84;-18443.06;5004679;28;19975;-85
2023/05/16 10:53:18;;;;;;;;;;;;;;;15.34;71.60;-18440.47;5005461;28;20012;-85
2023/05/16 10:55:55;;;;;;;;;;;;;;;15.52;67.44;-18445.41;5006072;22;19944;-80
2023/05/16 10:58:31;;;;;;;;;;;;;;;15.81;69.40;-18453.06;5002769;28;20336;-79
2023/05/16 11:01:14;;;;;;;;;;;;;;;15.82;69.76;-18453.19;5003470;28;19929;-80
2023/05/16 11:04:00;;;;;;;;;;;;;;;16.02;64.33;-18458.66;5029554;22;20376;-80
2023/05/16 11:06:31;;;;;;;;;;;;;;;16.19;56.21;-18463.31;5020072;28;20283;-79
2023/05/16 11:09:05;;;;;;;;;;;;;;;16.12;54.16;-18461.28;5019170;28;19921;-80
2023/05/16 11:11:49;;;;;;;;;;;;;;;16.34;54.13;-18467.28;5020221;28;19963;-80
2023/05/16 11:14:22;;;;;;;;;;;;;;;16.36;55.59;-18467.81;5005019;28;19929;-82
2023/05/16 11:16:47;;;;;;;;;;;;;;;16.41;59.10;-18469.19;5020357;28;19917;-83
2023/05/16 11:19:13;;;;;;;;;;;;;;;16.40;60.40;-18468.94;5017975;28;19925;-82
2023/05/16 11:21:56;;;;;;;;;;;;;;;16.26;62.13;-18465.09;5019743;28;20421;-82
2023/05/16 11:24:29;;;;;;;;;;;;;;;16.22;58.57;-18464.00;5018459;28;20011;-81
2023/05/16 11:26:54;;;;;;;;;;;;;;;16.42;56.03;-18469.47;5017746;28;20416;-79
2023/05/16 11:29:21;;;;;;;;;;;;;;;16.66;54.43;-18475.75;5019361;28;19956;-80
2023/05/16 11:31:47;;;;;;;;;;;;;;;16.95;49.39;-18483.53;5020906;28;20399;-81
2023/05/16 11:34:12;;;;;;;;;;;;;;;17.03;52.31;-18485.59;5019690;28;19917;-80
2023/05/16 11:36:39;;;;;;;;;;;;;;;17.27;50.96;-18492.00;5019187;28;19925;-81
2023/05/16 11:39:05;;;;;;;;;;;;;;;17.22;50.08;-18490.78;5015833;28;19956;-80
2023/05/16 11:41:31;;;;;;;;;;;;;;;17.28;47.83;-18492.41;5015145;28;19921;-79
2023/05/16 11:43:56;;;;;;;;;;;;;;;17.15;47.86;-18488.88;5016173;28;19917;-79
2023/05/16 11:46:22;;;;;;;;;;;;;;;16.76;48.43;-18478.34;5001006;28;19975;-82
2023/05/16 11:48:47;;;;;;;;;;;;;;;16.51;49.87;-18471.66;5015173;28;19917;-80
2023/05/16 11:51:17;;;;;;;;;;;;;;;16.37;52.89;-18468.09;5017869;28;19932;-79
2023/05/16 11:53:45;;;;;;;;;;;;;;;16.44;51.33;-18470.00;5003806;28;19918;-79
2023/05/16 11:56:11;;;;;;;;;;;;;;;16.54;50.23;-18472.47;5016545;28;19925;-80
2023/05/16 11:58:38;;;;;;;;;;;;;;;16.45;52.88;-18470.28;5016051;28;20055;-79
2023/05/16 12:01:04;;;;;;;;;;;;;;;16.47;55.90;-18470.84;5016887;28;20415;-79
2023/05/16 12:03:32;;;;;;;;;;;;;;;16.35;55.65;-18467.56;5018819;28;19975;-81
2023/05/16 12:05:57;;;;;;;;;;;;;;;16.10;57.79;-18460.72;5015440;28;19948;-79
2023/05/16 12:08:26;;;;;;;;;;;;;;;16.09;61.54;-18460.44;5003355;28;19921;-83
2023/05/16 12:10:52;;;;;;;;;;;;;;;15.99;59.97;-18458.00;5018487;28;19940;-81
2023/05/16 12:13:18;;;;;;;;;;;;;;;16.19;59.94;-18463.19;5020061;28;19951;-78
2023/05/16 12:15:43;;;;;;;;;;;;;;;16.39;59.13;-18468.66;5025218;28;20604;-78
2023/05/16 12:18:09;;;;;;;;;;;;;;;16.46;59.30;-18470.56;5027062;28;19925;-77
2023/05/16 12:20:35;;;;;;;;;;;;;;;16.61;56.12;-18474.53;5026537;28;19980;-78
2023/05/16 12:23:00;;;;;;;;;;;;;;;16.68;55.45;-18476.44;5031586;28;20175;-79
2023/05/16 12:25:34;;;;;;;;;;;;;;;16.98;51.83;-18484.22;5031621;28;19963;-79
2023/05/16 12:28:00;;;;;;;;;;;;;;;17.11;54.10;-18487.78;5035808;28;20388;-79